createdAt,value
2023-05-05T00:03:04.479Z,66.76
2023-05-05T00:08:08.067Z,66.80
2023-05-05T00:13:11.130Z,67.21
2023-05-05T00:18:16.974Z,67.52
2023-05-05T00:23:20.694Z,68.26
2023-05-05T00:28:23.949Z,68.34
2023-05-05T00:33:27.290Z,68.48
2023-05-05T00:38:30.273Z,68.82
2023-05-05T00:43:33.426Z,69.31
2023-05-05T00:48:36.585Z,70.16
2023-05-05T00:53:43.280Z,69.08
2023-05-05T00:59:05.118Z,69.21
2023-05-05T01:04:08.085Z,69.65
2023-05-05T01:09:27.370Z,69.78
2023-05-05T01:14:59.404Z,69.25
2023-05-05T01:20:22.044Z,69.07
2023-05-05T01:25:43.938Z,68.90
2023-05-05T01:31:42.384Z,69.90
2023-05-05T01:36:51.577Z,69.62
2023-05-05T01:41:59.677Z,69.10
2023-05-05T01:47:05.633Z,68.92
2023-05-05T01:52:10.519Z,68.33
2023-05-05T01:57:14.682Z,67.69
2023-05-05T02:02:20.497Z,67.71
2023-05-05T02:07:24.605Z,67.53
2023-05-05T02:12:29.373Z,67.42
2023-05-05T02:17:33.257Z,67.01
2023-05-05T02:22:36.309Z,66.67
2023-05-05T02:27:43.281Z,66.29
2023-05-05T02:32:56.606Z,66.21
2023-05-05T02:38:05.724Z,66.15
2023-05-05T02:43:18.423Z,65.84
2023-05-05T02:48:22.550Z,65.27
2023-05-05T02:53:29.124Z,65.32
2023-05-05T02:58:42.735Z,65.75
2023-05-05T03:04:08.971Z,65.06
2023-05-05T03:09:55.004Z,63.93
2023-05-05T03:15:16.828Z,62.63
2023-05-05T03:20:22.218Z,62.07
2023-05-05T03:25:42.725Z,61.54
2023-05-05T03:31:04.676Z,61.26
2023-05-05T03:36:10.953Z,60.19
2023-05-05T03:41:14.675Z,59.92
2023-05-05T03:46:36.192Z,59.71
2023-05-05T03:51:40.751Z,59.10
2023-05-05T03:56:43.995Z,58.71
2023-05-05T04:01:49.209Z,58.33
2023-05-05T04:06:52.985Z,58.16
2023-05-05T04:11:56.293Z,57.64
2023-05-05T04:16:59.211Z,57.04
2023-05-05T04:22:20.761Z,56.15
2023-05-05T04:27:26.425Z,54.34
2023-05-05T04:32:29.867Z,53.50
2023-05-05T04:37:33.070Z,52.47
2023-05-05T04:42:36.914Z,51.97
2023-05-05T04:47:41.084Z,51.37
2023-05-05T04:52:44.286Z,50.99
2023-05-05T04:57:47.272Z,51.26
2023-05-05T05:02:50.405Z,50.25
2023-05-05T05:07:53.395Z,49.11
2023-05-05T05:12:56.316Z,48.53
2023-05-05T05:17:59.503Z,47.87
2023-05-05T05:23:02.702Z,47.37
2023-05-05T05:28:10.586Z,47.32
2023-05-05T05:33:22.757Z,47.30
2023-05-05T05:38:27.067Z,46.97
2023-05-05T05:43:33.990Z,46.85
2023-05-05T05:48:36.987Z,46.97
2023-05-05T05:53:40.278Z,46.72
2023-05-05T05:58:45.534Z,46.76
2023-05-05T06:03:48.597Z,46.39
2023-05-05T06:08:52.148Z,45.96
2023-05-05T06:13:55.160Z,45.59
2023-05-05T06:18:58.294Z,44.34
2023-05-05T06:24:01.369Z,43.36
2023-05-05T06:29:04.663Z,42.17
2023-05-05T06:34:07.612Z,41.18
2023-05-05T06:39:10.571Z,40.29
2023-05-05T06:44:13.964Z,38.78
2023-05-05T06:49:16.982Z,38.38
2023-05-05T06:54:19.879Z,38.56
2023-05-05T06:59:22.757Z,38.07
2023-05-05T07:04:25.700Z,36.07
2023-05-05T07:09:28.682Z,33.15
2023-05-05T07:14:31.617Z,32.26
2023-05-05T07:19:34.515Z,29.48
2023-05-05T07:24:37.392Z,29.33
2023-05-05T07:29:40.411Z,28.79
2023-05-05T07:34:43.298Z,29.29
2023-05-05T07:39:47.843Z,28.08
2023-05-05T07:44:50.983Z,28.36
2023-05-05T07:49:54.476Z,27.35
2023-05-05T07:54:57.310Z,26.65
2023-05-05T08:00:00.148Z,26.68
2023-05-05T08:05:03.016Z,26.24
2023-05-05T08:10:07.236Z,25.25
2023-05-05T08:15:28.577Z,25.97
2023-05-05T08:20:31.512Z,26.37
2023-05-05T08:25:53.280Z,25.58
2023-05-05T08:30:56.328Z,25.26
2023-05-05T08:35:59.345Z,25.46
2023-05-05T08:41:02.413Z,25.44
2023-05-05T08:46:05.731Z,25.44
2023-05-05T08:51:10.364Z,25.73
2023-05-05T08:56:14.331Z,25.44
2023-05-05T09:01:45.536Z,25.50
2023-05-05T09:06:48.631Z,25.98
2023-05-05T09:11:53.152Z,26.18
2023-05-05T09:16:56.219Z,25.98
2023-05-05T09:21:59.171Z,26.05
2023-05-05T09:27:22.536Z,26.17
2023-05-05T09:32:27.586Z,26.53
2023-05-05T09:37:50.298Z,27.00
2023-05-05T09:43:01.973Z,26.33
2023-05-05T09:48:06.872Z,26.02
2023-05-05T09:53:11.123Z,26.65
2023-05-05T09:58:28.204Z,26.16
2023-05-05T10:03:31.416Z,25.79
2023-05-05T10:08:34.711Z,25.48
2023-05-05T10:13:42.244Z,25.20
2023-05-05T10:18:46.957Z,25.46
2023-05-05T10:24:03.709Z,24.99
2023-05-05T10:29:16.455Z,24.64
2023-05-05T10:34:34.702Z,25.47
2023-05-05T10:39:57.823Z,25.60
2023-05-05T10:45:01.058Z,25.51
2023-05-05T10:50:13.575Z,26.29
2023-05-05T10:55:35.246Z,26.13
2023-05-05T11:00:41.365Z,26.04
2023-05-05T11:06:08.684Z,26.20
2023-05-05T11:11:12.941Z,25.73
2023-05-05T11:16:48.339Z,26.31
2023-05-05T11:22:10.230Z,26.11
2023-05-05T11:27:13.274Z,25.17
2023-05-05T11:32:16.390Z,25.29
2023-05-05T11:37:23.431Z,25.45
2023-05-05T11:42:27.341Z,24.83
2023-05-05T11:47:31.259Z,24.63
2023-05-05T11:52:34.803Z,25.09
2023-05-05T11:57:37.836Z,24.75
2023-05-05T12:02:40.899Z,24.70
2023-05-05T12:07:44.145Z,25.81
2023-05-05T12:12:47.283Z,27.06
2023-05-05T12:17:51.065Z,27.24
2023-05-05T12:23:00.798Z,27.17
2023-05-05T12:28:04.653Z,27.36
2023-05-05T12:33:08.508Z,28.04
2023-05-05T12:38:11.735Z,28.97
2023-05-05T12:43:32.283Z,28.38
2023-05-05T12:48:38.318Z,28.77
2023-05-05T12:53:41.558Z,28.98
2023-05-05T12:58:48.875Z,28.67
2023-05-05T13:04:12.159Z,28.29
2023-05-05T13:09:25.322Z,28.56
2023-05-05T13:14:28.449Z,27.89
2023-05-05T13:19:32.230Z,27.03
2023-05-05T13:24:49.786Z,27.90
2023-05-05T13:29:55.116Z,28.44
2023-05-05T13:34:58.234Z,27.57
2023-05-05T13:40:01.561Z,27.16
2023-05-05T13:45:06.902Z,27.87
2023-05-05T13:50:10.245Z,28.59
2023-05-05T13:55:13.164Z,29.38
2023-05-05T14:00:16.953Z,30.48
2023-05-05T14:05:20.655Z,29.66
2023-05-05T14:10:23.711Z,29.89
2023-05-05T14:15:26.864Z,28.99
2023-05-05T14:20:30.407Z,28.88
2023-05-05T14:25:33.300Z,30.02
2023-05-05T14:30:36.479Z,30.50
2023-05-05T14:35:39.469Z,31.71
2023-05-05T14:41:01.238Z,34.06
2023-05-05T14:46:07.018Z,36.68
2023-05-05T14:51:10.162Z,38.20
2023-05-05T14:56:13.215Z,38.90
2023-05-05T15:01:16.481Z,39.09
2023-05-05T15:06:19.997Z,39.70
2023-05-05T15:11:22.931Z,39.55
2023-05-05T15:16:25.817Z,39.52
2023-05-05T15:21:29.191Z,41.70
2023-05-05T15:26:50.783Z,43.45
2023-05-05T15:31:53.681Z,44.77
2023-05-05T15:36:57.275Z,45.87
2023-05-05T15:42:04.031Z,46.20
2023-05-05T15:47:07.388Z,46.99
2023-05-05T15:52:10.710Z,46.69
2023-05-05T15:57:13.836Z,47.18
2023-05-05T16:02:16.857Z,47.61
2023-05-05T16:07:20.119Z,47.94
2023-05-05T16:12:41.600Z,48.25
2023-05-05T16:17:44.771Z,48.60
2023-05-05T16:23:07.086Z,49.03
2023-05-05T16:28:10.163Z,49.30
2023-05-05T16:33:13.257Z,50.56
2023-05-05T16:38:16.468Z,51.65
2023-05-05T16:43:19.776Z,53.66
2023-05-05T16:48:22.752Z,54.34
2023-05-05T16:53:25.902Z,54.85
2023-05-05T16:58:28.937Z,55.81
2023-05-05T17:03:31.938Z,56.42
2023-05-05T17:08:34.842Z,56.48
2023-05-05T17:13:37.871Z,56.93
2023-05-05T17:18:40.887Z,57.12
2023-05-05T17:23:44.265Z,57.31
2023-05-05T17:28:47.301Z,57.71
2023-05-05T17:33:50.377Z,58.17
2023-05-05T17:38:53.363Z,58.50
2023-05-05T17:43:56.336Z,58.68
2023-05-05T17:49:17.941Z,59.20
2023-05-05T17:54:39.402Z,59.52
2023-05-05T17:59:42.453Z,59.56
2023-05-05T18:04:46.628Z,59.58
2023-05-05T18:10:10.822Z,59.82
2023-05-05T18:15:13.954Z,59.96
2023-05-05T18:20:35.629Z,60.33
2023-05-05T18:25:38.788Z,60.76
2023-05-05T18:30:41.700Z,61.04
2023-05-05T18:36:04.362Z,61.57
2023-05-05T18:41:07.336Z,62.34
2023-05-05T18:46:11.043Z,62.69
2023-05-05T18:51:13.914Z,62.71
2023-05-05T18:56:16.821Z,63.72
2023-05-05T19:01:21.337Z,64.30
2023-05-05T19:06:24.408Z,64.94
2023-05-05T19:11:27.526Z,65.04
2023-05-05T19:16:30.402Z,66.15
2023-05-05T19:21:33.912Z,67.59
2023-05-05T19:26:37.062Z,68.74
2023-05-05T19:31:39.849Z,68.79
2023-05-05T19:36:42.834Z,68.72
2023-05-05T19:41:46.064Z,68.00
2023-05-05T19:46:49.090Z,68.23
2023-05-05T19:51:53.099Z,67.63
2023-05-05T19:56:57.448Z,67.89
2023-05-05T20:02:19.150Z,68.02
2023-05-05T20:07:22.146Z,67.70
2023-05-05T20:12:25.059Z,67.90
2023-05-05T20:17:28.045Z,67.73
2023-05-05T20:22:31.608Z,72.77
2023-05-05T20:27:36.051Z,91.27
2023-05-05T20:32:39.442Z,93.19
2023-05-05T20:37:42.394Z,93.34
2023-05-05T20:42:45.523Z,92.99
2023-05-05T20:47:48.545Z,93.11
2023-05-05T20:52:51.818Z,92.56
2023-05-05T20:57:55.005Z,92.75
2023-05-05T21:02:58.038Z,90.90
2023-05-05T21:08:01.354Z,89.98
2023-05-05T21:13:04.560Z,91.77
2023-05-05T21:18:07.973Z,92.15
2023-05-05T21:23:11.971Z,92.86
2023-05-05T21:28:14.859Z,91.89
2023-05-05T21:33:17.857Z,92.39
2023-05-05T21:38:20.843Z,92.34
2023-05-05T21:43:25.815Z,91.94
2023-05-05T21:48:29.007Z,91.99
2023-05-05T21:53:31.963Z,90.37
2023-05-05T21:58:35.097Z,90.39
2023-05-05T22:03:39.748Z,90.15
2023-05-05T22:08:42.977Z,90.59
2023-05-05T22:13:47.061Z,89.72
2023-05-05T22:18:50.412Z,89.53
2023-05-05T22:23:53.725Z,89.73
2023-05-05T22:28:57.315Z,89.23
2023-05-05T22:34:00.345Z,88.88
2023-05-05T22:39:03.552Z,88.02
2023-05-05T22:44:07.160Z,87.85
2023-05-05T22:49:10.314Z,87.93
2023-05-05T22:54:13.462Z,86.99
2023-05-05T22:59:16.347Z,87.17
2023-05-05T23:04:19.261Z,86.88
2023-05-05T23:09:22.190Z,87.84
2023-05-05T23:14:25.227Z,87.02
2023-05-05T23:19:29.378Z,86.83
2023-05-05T23:24:32.700Z,86.75
2023-05-05T23:29:35.703Z,86.25
2023-05-05T23:34:38.706Z,86.81
2023-05-05T23:39:42.442Z,87.45
2023-05-05T23:44:45.303Z,86.71
2023-05-05T23:49:48.117Z,87.08
2023-05-05T23:54:51.328Z,86.63
2023-05-05T23:59:54.187Z,87.72
